sensor_id;sensor_type;location;lat;lon;timestamp;pressure;altitude;pressure_sealevel;temperature
42119;BMP280;27783;42.782;23.274;2022-11-15T00:00:57;96156.06;;;0.13
42119;BMP280;27783;42.782;23.274;2022-11-15T00:03:26;96147.53;;;0.12
42119;BMP280;27783;42.782;23.274;2022-11-15T00:05:53;96152.94;;;-0.06
42119;BMP280;27783;42.782;23.274;2022-11-15T00:08:19;96154.47;;;-0.51
42119;BMP280;27783;42.782;23.274;2022-11-15T00:10:56;96161.84;;;-0.66
42119;BMP280;27783;42.782;23.274;2022-11-15T00:13:22;96144.53;;;-0.57
42119;BMP280;27783;42.782;23.274;2022-11-15T00:15:48;96147.50;;;-0.42
42119;BMP280;27783;42.782;23.274;2022-11-15T00:18:17;96149.69;;;-0.28
42119;BMP280;27783;42.782;23.274;2022-11-15T00:20:46;96135.63;;;-0.43
42119;BMP280;27783;42.782;23.274;2022-11-15T00:23:12;96142.38;;;-0.26
42119;BMP280;27783;42.782;23.274;2022-11-15T00:25:39;96140.88;;;-0.18
42119;BMP280;27783;42.782;23.274;2022-11-15T00:28:05;96140.28;;;-0.16
42119;BMP280;27783;42.782;23.274;2022-11-15T00:30:31;96145.00;;;-0.17
42119;BMP280;27783;42.782;23.274;2022-11-15T00:32:56;96133.00;;;-0.14
42119;BMP280;27783;42.782;23.274;2022-11-15T00:35:22;96140.31;;;-0.07
42119;BMP280;27783;42.782;23.274;2022-11-15T00:37:48;96139.34;;;-0.19
42119;BMP280;27783;42.782;23.274;2022-11-15T00:40:14;96141.41;;;-0.38
42119;BMP280;27783;42.782;23.274;2022-11-15T00:42:40;96145.81;;;-0.47
42119;BMP280;27783;42.782;23.274;2022-11-15T00:45:06;96139.28;;;-0.36
42119;BMP280;27783;42.782;23.274;2022-11-15T00:47:31;96133.13;;;-0.56
42119;BMP280;27783;42.782;23.274;2022-11-15T00:49:57;96132.38;;;-0.49
42119;BMP280;27783;42.782;23.274;2022-11-15T00:52:24;96140.47;;;-0.50
42119;BMP280;27783;42.782;23.274;2022-11-15T00:54:49;96133.91;;;-0.48
42119;BMP280;27783;42.782;23.274;2022-11-15T00:57:14;96138.22;;;-0.43
42119;BMP280;27783;42.782;23.274;2022-11-15T00:59:40;96136.50;;;-0.48
42119;BMP280;27783;42.782;23.274;2022-11-15T01:02:06;96127.03;;;-0.52
42119;BMP280;27783;42.782;23.274;2022-11-15T01:04:32;96128.94;;;-0.74
42119;BMP280;27783;42.782;23.274;2022-11-15T01:06:57;96126.78;;;-0.72
42119;BMP280;27783;42.782;23.274;2022-11-15T01:09:22;96134.59;;;-0.93
42119;BMP280;27783;42.782;23.274;2022-11-15T01:11:49;96131.72;;;-1.13
42119;BMP280;27783;42.782;23.274;2022-11-15T01:14:15;96123.06;;;-0.87
42119;BMP280;27783;42.782;23.274;2022-11-15T01:16:43;96129.13;;;-0.62
42119;BMP280;27783;42.782;23.274;2022-11-15T01:19:08;96126.38;;;-0.66
42119;BMP280;27783;42.782;23.274;2022-11-15T01:21:34;96128.69;;;-0.85
42119;BMP280;27783;42.782;23.274;2022-11-15T01:24:00;96127.00;;;-0.90
42119;BMP280;27783;42.782;23.274;2022-11-15T01:26:26;96117.34;;;-0.76
42119;BMP280;27783;42.782;23.274;2022-11-15T01:28:52;96121.28;;;-0.79
42119;BMP280;27783;42.782;23.274;2022-11-15T01:31:20;96124.84;;;-0.96
42119;BMP280;27783;42.782;23.274;2022-11-15T01:33:47;96130.13;;;-0.80
42119;BMP280;27783;42.782;23.274;2022-11-15T01:36:19;96121.28;;;-0.79
42119;BMP280;27783;42.782;23.274;2022-11-15T01:38:47;96119.09;;;-0.64
42119;BMP280;27783;42.782;23.274;2022-11-15T01:41:20;96126.28;;;-0.52
42119;BMP280;27783;42.782;23.274;2022-11-15T01:43:49;96125.88;;;-0.46
42119;BMP280;27783;42.782;23.274;2022-11-15T01:46:36;96121.88;;;-0.52
42119;BMP280;27783;42.782;23.274;2022-11-15T01:49:05;96115.00;;;-0.56
42119;BMP280;27783;42.782;23.274;2022-11-15T01:51:36;96115.03;;;-0.48
42119;BMP280;27783;42.782;23.274;2022-11-15T01:54:09;96107.44;;;-0.45
42119;BMP280;27783;42.782;23.274;2022-11-15T01:56:43;96106.94;;;-0.55
42119;BMP280;27783;42.782;23.274;2022-11-15T01:59:10;96112.47;;;-0.78
42119;BMP280;27783;42.782;23.274;2022-11-15T02:01:36;96112.13;;;-0.84
42119;BMP280;27783;42.782;23.274;2022-11-15T02:04:31;96119.88;;;-0.84
42119;BMP280;27783;42.782;23.274;2022-11-15T02:06:57;96113.84;;;-0.72
42119;BMP280;27783;42.782;23.274;2022-11-15T02:09:23;96117.63;;;-0.78
42119;BMP280;27783;42.782;23.274;2022-11-15T02:12:09;96115.72;;;-0.64
42119;BMP280;27783;42.782;23.274;2022-11-15T02:14:37;96105.22;;;-0.67
42119;BMP280;27783;42.782;23.274;2022-11-15T02:17:31;96114.78;;;-0.68
42119;BMP280;27783;42.782;23.274;2022-11-15T02:30:52;96106.56;;;-0.32
42119;BMP280;27783;42.782;23.274;2022-11-15T02:42:02;96108.75;;;-0.17
42119;BMP280;27783;42.782;23.274;2022-11-15T02:44:52;96102.81;;;-0.10
42119;BMP280;27783;42.782;23.274;2022-11-15T02:47:20;96103.13;;;-0.11
42119;BMP280;27783;42.782;23.274;2022-11-15T02:49:52;96100.66;;;-0.24
42119;BMP280;27783;42.782;23.274;2022-11-15T02:52:27;96096.72;;;-0.14
42119;BMP280;27783;42.782;23.274;2022-11-15T02:54:59;96113.44;;;-0.19
42119;BMP280;27783;42.782;23.274;2022-11-15T02:57:51;96114.81;;;-0.30
42119;BMP280;27783;42.782;23.274;2022-11-15T03:00:19;96111.31;;;-0.26
42119;BMP280;27783;42.782;23.274;2022-11-15T03:02:59;96110.25;;;-0.25
42119;BMP280;27783;42.782;23.274;2022-11-15T03:09:10;96112.56;;;-0.15
42119;BMP280;27783;42.782;23.274;2022-11-15T03:11:43;96095.97;;;-0.14
42119;BMP280;27783;42.782;23.274;2022-11-15T03:14:34;96099.03;;;-0.04
42119;BMP280;27783;42.782;23.274;2022-11-15T03:17:30;96095.06;;;0.07
42119;BMP280;27783;42.782;23.274;2022-11-15T03:20:07;96094.50;;;0.10
42119;BMP280;27783;42.782;23.274;2022-11-15T03:22:41;96091.59;;;0.19
42119;BMP280;27783;42.782;23.274;2022-11-15T03:25:10;96093.56;;;0.14
42119;BMP280;27783;42.782;23.274;2022-11-15T03:27:50;96097.09;;;0.10
42119;BMP280;27783;42.782;23.274;2022-11-15T03:30:16;96097.22;;;0.05
42119;BMP280;27783;42.782;23.274;2022-11-15T03:32:56;96084.41;;;0.00
42119;BMP280;27783;42.782;23.274;2022-11-15T03:35:24;96091.38;;;-0.09
42119;BMP280;27783;42.782;23.274;2022-11-15T03:37:59;96089.56;;;-0.17
42119;BMP280;27783;42.782;23.274;2022-11-15T03:40:43;96080.41;;;-0.06
42119;BMP280;27783;42.782;23.274;2022-11-15T03:46:05;96082.28;;;0.18
42119;BMP280;27783;42.782;23.274;2022-11-15T03:48:41;96074.22;;;0.28
42119;BMP280;27783;42.782;23.274;2022-11-15T03:51:09;96084.41;;;0.33
42119;BMP280;27783;42.782;23.274;2022-11-15T03:53:34;96072.84;;;0.39
42119;BMP280;27783;42.782;23.274;2022-11-15T03:56:00;96073.59;;;0.31
42119;BMP280;27783;42.782;23.274;2022-11-15T03:58:26;96062.34;;;0.35
42119;BMP280;27783;42.782;23.274;2022-11-15T04:00:51;96068.88;;;0.49
42119;BMP280;27783;42.782;23.274;2022-11-15T04:03:17;96071.31;;;0.54
42119;BMP280;27783;42.782;23.274;2022-11-15T04:05:42;96076.34;;;0.51
42119;BMP280;27783;42.782;23.274;2022-11-15T04:08:08;96064.91;;;0.60
42119;BMP280;27783;42.782;23.274;2022-11-15T04:10:33;96075.88;;;0.74
42119;BMP280;27783;42.782;23.274;2022-11-15T04:12:58;96072.38;;;0.78
42119;BMP280;27783;42.782;23.274;2022-11-15T04:15:26;96069.63;;;0.66
42119;BMP280;27783;42.782;23.274;2022-11-15T04:17:56;96068.56;;;0.67
42119;BMP280;27783;42.782;23.274;2022-11-15T04:23:12;96069.59;;;0.91
42119;BMP280;27783;42.782;23.274;2022-11-15T04:25:59;96059.19;;;0.99
42119;BMP280;27783;42.782;23.274;2022-11-15T04:28:25;96068.41;;;1.25
42119;BMP280;27783;42.782;23.274;2022-11-15T04:30:50;96064.41;;;1.36
42119;BMP280;27783;42.782;23.274;2022-11-15T04:33:20;96056.28;;;1.01
42119;BMP280;27783;42.782;23.274;2022-11-15T04:35:47;96057.97;;;1.05
42119;BMP280;27783;42.782;23.274;2022-11-15T04:38:36;96058.41;;;0.99
42119;BMP280;27783;42.782;23.274;2022-11-15T04:41:02;96057.50;;;1.12
42119;BMP280;27783;42.782;23.274;2022-11-15T04:43:29;96055.97;;;1.11
42119;BMP280;27783;42.782;23.274;2022-11-15T04:45:56;96068.00;;;1.51
42119;BMP280;27783;42.782;23.274;2022-11-15T04:48:21;96065.03;;;1.33
42119;BMP280;27783;42.782;23.274;2022-11-15T04:50:53;96062.16;;;1.26
42119;BMP280;27783;42.782;23.274;2022-11-15T04:53:19;96066.78;;;1.21
42119;BMP280;27783;42.782;23.274;2022-11-15T04:55:46;96067.53;;;1.21
42119;BMP280;27783;42.782;23.274;2022-11-15T04:58:11;96071.94;;;1.29
42119;BMP280;27783;42.782;23.274;2022-11-15T05:00:38;96076.69;;;1.27
42119;BMP280;27783;42.782;23.274;2022-11-15T05:03:04;96071.00;;;1.25
42119;BMP280;27783;42.782;23.274;2022-11-15T05:05:48;96076.38;;;1.20
42119;BMP280;27783;42.782;23.274;2022-11-15T05:08:13;96074.53;;;1.29
42119;BMP280;27783;42.782;23.274;2022-11-15T05:10:39;96070.84;;;1.30
42119;BMP280;27783;42.782;23.274;2022-11-15T05:13:04;96068.88;;;1.27
42119;BMP280;27783;42.782;23.274;2022-11-15T05:15:29;96073.88;;;1.40
42119;BMP280;27783;42.782;23.274;2022-11-15T05:17:59;96057.03;;;1.46
42119;BMP280;27783;42.782;23.274;2022-11-15T05:20:25;96065.91;;;1.45
42119;BMP280;27783;42.782;23.274;2022-11-15T05:22:52;96071.75;;;1.34
42119;BMP280;27783;42.782;23.274;2022-11-15T05:25:18;96062.28;;;1.38
42119;BMP280;27783;42.782;23.274;2022-11-15T05:27:44;96057.72;;;1.35
42119;BMP280;27783;42.782;23.274;2022-11-15T05:30:09;96053.38;;;1.47
42119;BMP280;27783;42.782;23.274;2022-11-15T05:32:36;96046.72;;;1.38
42119;BMP280;27783;42.782;23.274;2022-11-15T05:35:02;96055.56;;;1.37
42119;BMP280;27783;42.782;23.274;2022-11-15T05:37:28;96051.00;;;1.34
42119;BMP280;27783;42.782;23.274;2022-11-15T05:39:54;96045.47;;;1.44
42119;BMP280;27783;42.782;23.274;2022-11-15T05:42:20;96052.97;;;1.37
42119;BMP280;27783;42.782;23.274;2022-11-15T05:44:47;96061.03;;;1.44
42119;BMP280;27783;42.782;23.274;2022-11-15T05:47:22;96056.91;;;1.43
42119;BMP280;27783;42.782;23.274;2022-11-15T05:49:50;96064.34;;;1.52
42119;BMP280;27783;42.782;23.274;2022-11-15T05:52:20;96071.50;;;1.55
42119;BMP280;27783;42.782;23.274;2022-11-15T05:54:46;96068.91;;;1.55
42119;BMP280;27783;42.782;23.274;2022-11-15T05:57:12;96072.91;;;1.53
42119;BMP280;27783;42.782;23.274;2022-11-15T05:59:38;96076.97;;;1.70
42119;BMP280;27783;42.782;23.274;2022-11-15T06:02:05;96078.06;;;1.89
42119;BMP280;27783;42.782;23.274;2022-11-15T06:04:31;96073.03;;;1.84
42119;BMP280;27783;42.782;23.274;2022-11-15T06:06:58;96075.47;;;1.89
42119;BMP280;27783;42.782;23.274;2022-11-15T06:09:23;96078.38;;;1.88
42119;BMP280;27783;42.782;23.274;2022-11-15T06:11:49;96078.34;;;1.96
42119;BMP280;27783;42.782;23.274;2022-11-15T06:14:15;96070.69;;;1.99
42119;BMP280;27783;42.782;23.274;2022-11-15T06:16:40;96077.63;;;1.87
42119;BMP280;27783;42.782;23.274;2022-11-15T06:19:06;96071.81;;;1.90
42119;BMP280;27783;42.782;23.274;2022-11-15T06:21:32;96072.91;;;2.09
42119;BMP280;27783;42.782;23.274;2022-11-15T06:23:58;96071.78;;;2.18
42119;BMP280;27783;42.782;23.274;2022-11-15T06:26:23;96062.44;;;2.17
42119;BMP280;27783;42.782;23.274;2022-11-15T06:28:49;96071.97;;;2.14
42119;BMP280;27783;42.782;23.274;2022-11-15T06:31:14;96068.63;;;2.33
42119;BMP280;27783;42.782;23.274;2022-11-15T06:33:40;96070.13;;;2.34
42119;BMP280;27783;42.782;23.274;2022-11-15T06:36:12;96065.31;;;2.44
42119;BMP280;27783;42.782;23.274;2022-11-15T06:38:43;96074.69;;;2.57
42119;BMP280;27783;42.782;23.274;2022-11-15T06:41:10;96066.41;;;2.63
42119;BMP280;27783;42.782;23.274;2022-11-15T06:43:36;96067.09;;;2.52
42119;BMP280;27783;42.782;23.274;2022-11-15T06:46:03;96067.50;;;2.74
42119;BMP280;27783;42.782;23.274;2022-11-15T06:48:29;96067.06;;;2.72
42119;BMP280;27783;42.782;23.274;2022-11-15T06:50:57;96071.38;;;2.68
42119;BMP280;27783;42.782;23.274;2022-11-15T06:53:23;96065.34;;;2.76
42119;BMP280;27783;42.782;23.274;2022-11-15T06:55:49;96060.28;;;2.79
42119;BMP280;27783;42.782;23.274;2022-11-15T06:58:14;96062.78;;;2.87
42119;BMP280;27783;42.782;23.274;2022-11-15T07:00:40;96065.06;;;2.89
42119;BMP280;27783;42.782;23.274;2022-11-15T07:03:06;96066.47;;;2.86
42119;BMP280;27783;42.782;23.274;2022-11-15T07:05:31;96061.72;;;3.00
42119;BMP280;27783;42.782;23.274;2022-11-15T07:07:57;96066.28;;;2.91
42119;BMP280;27783;42.782;23.274;2022-11-15T07:10:23;96062.59;;;2.92
42119;BMP280;27783;42.782;23.274;2022-11-15T07:12:54;96055.69;;;3.08
42119;BMP280;27783;42.782;23.274;2022-11-15T07:15:22;96053.97;;;3.12
42119;BMP280;27783;42.782;23.274;2022-11-15T07:17:47;96051.78;;;3.14
42119;BMP280;27783;42.782;23.274;2022-11-15T07:20:13;96051.47;;;3.15
42119;BMP280;27783;42.782;23.274;2022-11-15T07:22:40;96055.56;;;3.48
42119;BMP280;27783;42.782;23.274;2022-11-15T07:25:06;96054.56;;;3.40
42119;BMP280;27783;42.782;23.274;2022-11-15T07:27:31;96056.66;;;3.58
42119;BMP280;27783;42.782;23.274;2022-11-15T07:29:57;96062.28;;;3.60
42119;BMP280;27783;42.782;23.274;2022-11-15T07:32:23;96059.81;;;3.75
42119;BMP280;27783;42.782;23.274;2022-11-15T07:34:48;96063.69;;;3.69
42119;BMP280;27783;42.782;23.274;2022-11-15T07:37:13;96060.09;;;3.62
42119;BMP280;27783;42.782;23.274;2022-11-15T07:39:39;96063.69;;;3.69
42119;BMP280;27783;42.782;23.274;2022-11-15T07:42:04;96052.94;;;3.82
42119;BMP280;27783;42.782;23.274;2022-11-15T07:44:49;96058.38;;;4.01
42119;BMP280;27783;42.782;23.274;2022-11-15T07:47:14;96058.00;;;4.26
42119;BMP280;27783;42.782;23.274;2022-11-15T07:49:39;96063.56;;;4.24
42119;BMP280;27783;42.782;23.274;2022-11-15T07:52:05;96062.78;;;4.35
42119;BMP280;27783;42.782;23.274;2022-11-15T07:54:31;96064.84;;;4.30
42119;BMP280;27783;42.782;23.274;2022-11-15T07:56:56;96062.81;;;4.12
42119;BMP280;27783;42.782;23.274;2022-11-15T07:59:22;96066.72;;;4.18
42119;BMP280;27783;42.782;23.274;2022-11-15T08:01:47;96069.88;;;4.12
42119;BMP280;27783;42.782;23.274;2022-11-15T08:04:13;96057.94;;;4.11
42119;BMP280;27783;42.782;23.274;2022-11-15T08:06:39;96056.63;;;4.16
42119;BMP280;27783;42.782;23.274;2022-11-15T08:09:04;96056.63;;;4.16
42119;BMP280;27783;42.782;23.274;2022-11-15T08:11:30;96064.84;;;4.18
42119;BMP280;27783;42.782;23.274;2022-11-15T08:13:55;96044.84;;;4.22
42119;BMP280;27783;42.782;23.274;2022-11-15T08:16:21;96044.19;;;4.25
42119;BMP280;27783;42.782;23.274;2022-11-15T08:18:46;96046.75;;;4.48
42119;BMP280;27783;42.782;23.274;2022-11-15T08:21:14;96049.75;;;4.62
42119;BMP280;27783;42.782;23.274;2022-11-15T08:23:42;96042.50;;;4.17
42119;BMP280;27783;42.782;23.274;2022-11-15T08:26:08;96034.63;;;4.41
42119;BMP280;27783;42.782;23.274;2022-11-15T08:28:34;96034.84;;;4.36
42119;BMP280;27783;42.782;23.274;2022-11-15T08:31:00;96037.22;;;4.41
42119;BMP280;27783;42.782;23.274;2022-11-15T08:33:25;96035.25;;;4.38
42119;BMP280;27783;42.782;23.274;2022-11-15T08:35:51;96034.47;;;4.49
42119;BMP280;27783;42.782;23.274;2022-11-15T08:38:16;96039.03;;;4.79
42119;BMP280;27783;42.782;23.274;2022-11-15T08:40:42;96036.03;;;4.92
42119;BMP280;27783;42.782;23.274;2022-11-15T08:43:07;96033.53;;;4.95
42119;BMP280;27783;42.782;23.274;2022-11-15T08:45:34;96030.50;;;4.93
42119;BMP280;27783;42.782;23.274;2022-11-15T08:48:03;96036.38;;;4.90
42119;BMP280;27783;42.782;23.274;2022-11-15T08:50:29;96018.03;;;5.02
42119;BMP280;27783;42.782;23.274;2022-11-15T08:52:54;96015.59;;;5.24
42119;BMP280;27783;42.782;23.274;2022-11-15T08:55:20;96017.72;;;5.03
42119;BMP280;27783;42.782;23.274;2022-11-15T08:57:45;96018.03;;;5.02
42119;BMP280;27783;42.782;23.274;2022-11-15T09:00:12;96020.84;;;4.82
42119;BMP280;27783;42.782;23.274;2022-11-15T09:02:39;96013.19;;;4.89
42119;BMP280;27783;42.782;23.274;2022-11-15T09:05:06;96009.19;;;5.06
42119;BMP280;27783;42.782;23.274;2022-11-15T09:07:31;95999.34;;;5.00
42119;BMP280;27783;42.782;23.274;2022-11-15T09:09:57;95998.44;;;4.81
42119;BMP280;27783;42.782;23.274;2022-11-15T09:12:23;95996.59;;;4.82
42119;BMP280;27783;42.782;23.274;2022-11-15T09:14:49;95989.47;;;5.09
42119;BMP280;27783;42.782;23.274;2022-11-15T09:17:14;95995.28;;;5.17
42119;BMP280;27783;42.782;23.274;2022-11-15T09:19:40;95988.25;;;5.33
42119;BMP280;27783;42.782;23.274;2022-11-15T09:22:06;95989.88;;;5.11
42119;BMP280;27783;42.782;23.274;2022-11-15T09:24:32;95999.53;;;5.22
42119;BMP280;27783;42.782;23.274;2022-11-15T09:26:58;95986.72;;;5.32
42119;BMP280;27783;42.782;23.274;2022-11-15T09:29:23;95982.25;;;5.32
42119;BMP280;27783;42.782;23.274;2022-11-15T09:31:52;95975.91;;;5.48
42119;BMP280;27783;42.782;23.274;2022-11-15T09:34:17;95970.13;;;5.40
42119;BMP280;27783;42.782;23.274;2022-11-15T09:36:42;95960.22;;;5.48
42119;BMP280;27783;42.782;23.274;2022-11-15T09:39:08;95967.56;;;5.58
42119;BMP280;27783;42.782;23.274;2022-11-15T09:41:57;95968.81;;;5.34
42119;BMP280;27783;42.782;23.274;2022-11-15T09:44:41;95955.69;;;5.76
42119;BMP280;27783;42.782;23.274;2022-11-15T09:48:06;95952.28;;;6.09
42119;BMP280;27783;42.782;23.274;2022-11-15T09:50:48;95952.69;;;5.92
42119;BMP280;27783;42.782;23.274;2022-11-15T09:53:24;95951.19;;;5.76
42119;BMP280;27783;42.782;23.274;2022-11-15T09:56:00;95940.88;;;5.83
42119;BMP280;27783;42.782;23.274;2022-11-15T10:01:04;95936.19;;;5.58
42119;BMP280;27783;42.782;23.274;2022-11-15T10:03:34;95935.69;;;5.38
42119;BMP280;27783;42.782;23.274;2022-11-15T10:06:03;95941.72;;;5.23
42119;BMP280;27783;42.782;23.274;2022-11-15T10:09:10;95935.53;;;5.46
42119;BMP280;27783;42.782;23.274;2022-11-15T10:11:39;95929.13;;;5.92
42119;BMP280;27783;42.782;23.274;2022-11-15T10:14:18;95926.41;;;5.70
42119;BMP280;27783;42.782;23.274;2022-11-15T10:24:44;95915.69;;;5.60
42119;BMP280;27783;42.782;23.274;2022-11-15T10:27:13;95916.94;;;5.99
42119;BMP280;27783;42.782;23.274;2022-11-15T10:29:49;95905.69;;;5.81
42119;BMP280;27783;42.782;23.274;2022-11-15T10:32:17;95910.16;;;5.80
42119;BMP280;27783;42.782;23.274;2022-11-15T10:34:43;95900.47;;;5.81
42119;BMP280;27783;42.782;23.274;2022-11-15T10:37:09;95890.16;;;6.06
42119;BMP280;27783;42.782;23.274;2022-11-15T10:39:34;95886.88;;;6.09
42119;BMP280;27783;42.782;23.274;2022-11-15T10:42:25;95883.41;;;6.23
42119;BMP280;27783;42.782;23.274;2022-11-15T10:44:51;95876.47;;;5.94
42119;BMP280;27783;42.782;23.274;2022-11-15T10:47:24;95872.25;;;6.26
42119;BMP280;27783;42.782;23.274;2022-11-15T10:49:55;95871.84;;;6.06
42119;BMP280;27783;42.782;23.274;2022-11-15T10:52:21;95861.94;;;5.96
42119;BMP280;27783;42.782;23.274;2022-11-15T10:54:59;95866.56;;;6.02
42119;BMP280;27783;42.782;23.274;2022-11-15T10:57:39;95859.88;;;6.23
42119;BMP280;27783;42.782;23.274;2022-11-15T11:02:57;95856.56;;;5.89
42119;BMP280;27783;42.782;23.274;2022-11-15T11:05:32;95846.09;;;6.26
42119;BMP280;27783;42.782;23.274;2022-11-15T11:08:24;95846.97;;;6.33
42119;BMP280;27783;42.782;23.274;2022-11-15T11:10:57;95844.19;;;6.05
42119;BMP280;27783;42.782;23.274;2022-11-15T11:13:26;95836.63;;;6.40
42119;BMP280;27783;42.782;23.274;2022-11-15T11:31:25;95809.00;;;6.43
42119;BMP280;27783;42.782;23.274;2022-11-15T11:34:13;95797.13;;;6.48
42119;BMP280;27783;42.782;23.274;2022-11-15T11:36:50;95798.06;;;6.81
42119;BMP280;27783;42.782;23.274;2022-11-15T11:42:12;95789.22;;;6.67
42119;BMP280;27783;42.782;23.274;2022-11-15T11:47:24;95777.06;;;6.56
42119;BMP280;27783;42.782;23.274;2022-11-15T11:49:59;95771.69;;;6.71
42119;BMP280;27783;42.782;23.274;2022-11-15T11:57:59;95748.50;;;6.48
42119;BMP280;27783;42.782;23.274;2022-11-15T12:00:28;95749.19;;;6.92
42119;BMP280;27783;42.782;23.274;2022-11-15T12:03:14;95753.97;;;6.61
42119;BMP280;27783;42.782;23.274;2022-11-15T12:05:48;95742.47;;;6.69
42119;BMP280;27783;42.782;23.274;2022-11-15T12:08:40;95741.25;;;6.63
42119;BMP280;27783;42.782;23.274;2022-11-15T12:13:50;95726.66;;;6.62
42119;BMP280;27783;42.782;23.274;2022-11-15T12:16:23;95730.69;;;7.07
42119;BMP280;27783;42.782;23.274;2022-11-15T12:18:53;95719.50;;;7.38
42119;BMP280;27783;42.782;23.274;2022-11-15T12:21:27;95729.78;;;6.96
42119;BMP280;27783;42.782;23.274;2022-11-15T12:24:05;95713.88;;;7.36
42119;BMP280;27783;42.782;23.274;2022-11-15T12:26:36;95708.59;;;7.33
42119;BMP280;27783;42.782;23.274;2022-11-15T12:29:15;95714.75;;;7.79
42119;BMP280;27783;42.782;23.274;2022-11-15T12:31:44;95703.84;;;7.45
42119;BMP280;27783;42.782;23.274;2022-11-15T12:36:46;95697.38;;;8.00
42119;BMP280;27783;42.782;23.274;2022-11-15T12:39:14;95694.84;;;7.75
42119;BMP280;27783;42.782;23.274;2022-11-15T12:41:44;95696.50;;;7.89
42119;BMP280;27783;42.782;23.274;2022-11-15T12:47:04;95686.72;;;7.86
42119;BMP280;27783;42.782;23.274;2022-11-15T12:49:47;95674.91;;;8.45
42119;BMP280;27783;42.782;23.274;2022-11-15T12:52:16;95677.97;;;8.57
42119;BMP280;27783;42.782;23.274;2022-11-15T13:02:29;95669.91;;;8.33
42119;BMP280;27783;42.782;23.274;2022-11-15T13:17:52;95646.19;;;8.19
42119;BMP280;27783;42.782;23.274;2022-11-15T13:20:21;95646.09;;;8.55
42119;BMP280;27783;42.782;23.274;2022-11-15T13:23:09;95644.97;;;9.18
42119;BMP280;27783;42.782;23.274;2022-11-15T13:28:21;95631.84;;;9.32
42119;BMP280;27783;42.782;23.274;2022-11-15T13:30:54;95619.75;;;9.11
42119;BMP280;27783;42.782;23.274;2022-11-15T13:35:56;95632.94;;;8.06
42119;BMP280;27783;42.782;23.274;2022-11-15T13:38:31;95631.16;;;8.69
42119;BMP280;27783;42.782;23.274;2022-11-15T13:40:58;95624.28;;;9.17
42119;BMP280;27783;42.782;23.274;2022-11-15T13:43:32;95625.28;;;8.92
42119;BMP280;27783;42.782;23.274;2022-11-15T13:46:20;95621.34;;;9.39
42119;BMP280;27783;42.782;23.274;2022-11-15T13:48:51;95626.94;;;9.27
42119;BMP280;27783;42.782;23.274;2022-11-15T13:56:32;95620.09;;;9.09
42119;BMP280;27783;42.782;23.274;2022-11-15T13:59:00;95628.81;;;9.23
42119;BMP280;27783;42.782;23.274;2022-11-15T14:01:28;95621.91;;;8.92
42119;BMP280;27783;42.782;23.274;2022-11-15T14:04:00;95622.28;;;8.94
42119;BMP280;27783;42.782;23.274;2022-11-15T14:06:28;95620.72;;;8.82
42119;BMP280;27783;42.782;23.274;2022-11-15T14:09:00;95615.84;;;8.81
42119;BMP280;27783;42.782;23.274;2022-11-15T14:11:27;95616.22;;;8.83
42119;BMP280;27783;42.782;23.274;2022-11-15T14:16:38;95622.00;;;8.43
42119;BMP280;27783;42.782;23.274;2022-11-15T14:19:06;95611.06;;;8.37
42119;BMP280;27783;42.782;23.274;2022-11-15T14:21:32;95608.13;;;8.46
42119;BMP280;27783;42.782;23.274;2022-11-15T14:24:17;95612.88;;;8.30
42119;BMP280;27783;42.782;23.274;2022-11-15T14:26:43;95605.31;;;8.22
42119;BMP280;27783;42.782;23.274;2022-11-15T14:29:28;95607.81;;;8.05
42119;BMP280;27783;42.782;23.274;2022-11-15T14:32:12;95607.81;;;8.05
42119;BMP280;27783;42.782;23.274;2022-11-15T14:34:37;95600.63;;;7.99
42119;BMP280;27783;42.782;23.274;2022-11-15T14:37:03;95599.75;;;7.88
42119;BMP280;27783;42.782;23.274;2022-11-15T14:39:28;95605.13;;;7.98
42119;BMP280;27783;42.782;23.274;2022-11-15T14:41:53;95606.16;;;7.90
42119;BMP280;27783;42.782;23.274;2022-11-15T14:44:19;95610.63;;;7.86
42119;BMP280;27783;42.782;23.274;2022-11-15T14:46:45;95611.63;;;7.75
42119;BMP280;27783;42.782;23.274;2022-11-15T14:49:11;95599.66;;;7.78
42119;BMP280;27783;42.782;23.274;2022-11-15T14:51:38;95606.25;;;7.62
42119;BMP280;27783;42.782;23.274;2022-11-15T14:54:03;95602.50;;;7.59
42119;BMP280;27783;42.782;23.274;2022-11-15T14:56:29;95600.97;;;7.58
42119;BMP280;27783;42.782;23.274;2022-11-15T14:58:54;95598.69;;;7.53
42119;BMP280;27783;42.782;23.274;2022-11-15T15:01:24;95599.34;;;7.44
42119;BMP280;27783;42.782;23.274;2022-11-15T15:03:50;95592.41;;;7.26
42119;BMP280;27783;42.782;23.274;2022-11-15T15:06:17;95590.91;;;7.28
42119;BMP280;27783;42.782;23.274;2022-11-15T15:08:43;95588.09;;;7.11
42119;BMP280;27783;42.782;23.274;2022-11-15T15:11:14;95586.78;;;6.95
42119;BMP280;27783;42.782;23.274;2022-11-15T15:13:41;95586.03;;;6.91
42119;BMP280;27783;42.782;23.274;2022-11-15T15:16:06;95590.50;;;6.91
42119;BMP280;27783;42.782;23.274;2022-11-15T15:18:32;95588.66;;;6.91
42119;BMP280;27783;42.782;23.274;2022-11-15T15:20:58;95596.03;;;6.86
42119;BMP280;27783;42.782;23.274;2022-11-15T15:23:27;95583.75;;;6.90
42119;BMP280;27783;42.782;23.274;2022-11-15T15:25:56;95581.31;;;6.75
42119;BMP280;27783;42.782;23.274;2022-11-15T15:28:21;95573.94;;;6.83
42119;BMP280;27783;42.782;23.274;2022-11-15T15:30:47;95572.84;;;6.84
42119;BMP280;27783;42.782;23.274;2022-11-15T15:33:12;95579.09;;;6.77
42119;BMP280;27783;42.782;23.274;2022-11-15T15:35:38;95567.63;;;6.59
42119;BMP280;27783;42.782;23.274;2022-11-15T15:38:04;95575.78;;;6.51
42119;BMP280;27783;42.782;23.274;2022-11-15T15:40:32;95589.06;;;6.39
42119;BMP280;27783;42.782;23.274;2022-11-15T15:42:57;95581.75;;;6.51
42119;BMP280;27783;42.782;23.274;2022-11-15T15:45:25;95583.50;;;6.16
42119;BMP280;27783;42.782;23.274;2022-11-15T15:47:51;95592.28;;;6.04
42119;BMP280;27783;42.782;23.274;2022-11-15T15:52:51;95580.94;;;5.97
42119;BMP280;27783;42.782;23.274;2022-11-15T15:55:18;95578.00;;;5.99
42119;BMP280;27783;42.782;23.274;2022-11-15T15:57:45;95580.59;;;5.99
42119;BMP280;27783;42.782;23.274;2022-11-15T16:00:12;95573.53;;;5.77
42119;BMP280;27783;42.782;23.274;2022-11-15T16:02:38;95584.03;;;5.81
42119;BMP280;27783;42.782;23.274;2022-11-15T16:05:04;95580.66;;;5.80
42119;BMP280;27783;42.782;23.274;2022-11-15T16:07:29;95571.94;;;5.51
42119;BMP280;27783;42.782;23.274;2022-11-15T16:09:54;95563.88;;;5.59
42119;BMP280;27783;42.782;23.274;2022-11-15T16:12:30;95581.81;;;5.61